createdAt,value
2018-06-09T00:00:54.705Z,2.90
2018-06-09T00:03:23.422Z,2.90
2018-06-09T00:05:51.651Z,2.80
2018-06-09T00:08:20.325Z,2.53
2018-06-09T00:10:49.066Z,2.43
2018-06-09T00:13:17.296Z,2.57
2018-06-09T00:15:46.699Z,2.60
2018-06-09T00:18:15.351Z,2.47
2018-06-09T00:20:44.700Z,2.60
2018-06-09T00:23:14.056Z,2.57
2018-06-09T00:25:42.663Z,3.10
2018-06-09T00:28:11.335Z,2.30
2018-06-09T00:30:40.527Z,2.63
2018-06-09T00:33:09.144Z,2.50
2018-06-09T00:35:37.747Z,2.70
2018-06-09T00:38:07.274Z,2.33
2018-06-09T00:40:35.933Z,3.00
2018-06-09T00:43:04.892Z,2.30
2018-06-09T00:45:33.526Z,2.67
2018-06-09T00:48:01.848Z,2.53
2018-06-09T00:50:30.526Z,3.00
2018-06-09T00:52:59.126Z,2.70
2018-06-09T00:55:27.652Z,2.70
2018-06-09T00:57:55.988Z,2.40
2018-06-09T01:00:24.645Z,3.00
2018-06-09T01:02:53.451Z,2.90
2018-06-09T01:05:22.013Z,2.97
2018-06-09T01:07:50.630Z,2.63
2018-06-09T01:10:19.414Z,2.70
2018-06-09T01:12:48.119Z,3.40
2018-06-09T01:15:16.750Z,3.40
2018-06-09T01:17:45.309Z,3.77
2018-06-09T01:20:13.616Z,3.23
2018-06-09T01:22:42.199Z,3.20
2018-06-09T01:25:10.892Z,2.80
2018-06-09T01:27:39.514Z,2.83
2018-06-09T01:30:08.129Z,2.80
2018-06-09T01:32:36.384Z,2.87
2018-06-09T01:35:04.987Z,3.13
2018-06-09T01:37:33.323Z,2.93
2018-06-09T01:40:01.899Z,2.63
2018-06-09T01:42:30.506Z,2.67
2018-06-09T01:44:59.024Z,2.80
2018-06-09T01:47:27.671Z,2.87
2018-06-09T01:49:56.916Z,2.63
2018-06-09T01:52:25.650Z,2.97
2018-06-09T01:54:54.938Z,2.80
2018-06-09T01:57:23.639Z,2.80
2018-06-09T01:59:52.170Z,2.77
2018-06-09T02:02:20.747Z,2.63
2018-06-09T02:04:50.000Z,2.50
2018-06-09T02:07:18.614Z,2.77
2018-06-09T02:09:47.247Z,2.87
2018-06-09T02:12:15.781Z,2.80
2018-06-09T02:14:44.341Z,2.83
2018-06-09T02:17:12.867Z,2.90
2018-06-09T02:19:41.359Z,3.00
2018-06-09T02:22:10.062Z,2.67
2018-06-09T02:24:38.644Z,2.97
2018-06-09T02:27:07.772Z,2.97
2018-06-09T02:29:36.016Z,2.87
2018-06-09T02:32:04.684Z,2.83
2018-06-09T02:34:33.288Z,2.73
2018-06-09T02:37:01.799Z,3.07
2018-06-09T02:39:30.033Z,2.93
2018-06-09T02:41:58.631Z,2.67
2018-06-09T02:44:27.544Z,3.03
2018-06-09T02:46:55.769Z,2.80
2018-06-09T02:49:24.473Z,3.10
2018-06-09T02:51:53.072Z,3.30
2018-06-09T02:54:21.724Z,3.53
2018-06-09T02:56:51.281Z,3.40
2018-06-09T02:59:19.475Z,3.27
2018-06-09T03:01:48.003Z,3.50
2018-06-09T03:04:16.567Z,3.23
2018-06-09T03:06:45.132Z,3.20
2018-06-09T03:09:13.758Z,3.13
2018-06-09T03:11:42.295Z,3.37
2018-06-09T03:14:10.832Z,3.27
2018-06-09T03:16:39.409Z,3.40
2018-06-09T03:19:07.941Z,3.00
2018-06-09T03:21:36.567Z,3.20
2018-06-09T03:24:05.155Z,3.20
2018-06-09T03:26:33.702Z,3.67
2018-06-09T03:29:02.302Z,3.63
2018-06-09T03:31:30.896Z,3.30
2018-06-09T03:33:59.563Z,3.57
2018-06-09T03:36:28.192Z,3.50
2018-06-09T03:38:56.391Z,3.60
2018-06-09T03:41:24.919Z,3.57
2018-06-09T03:43:53.479Z,3.70
2018-06-09T03:46:22.045Z,3.47
2018-06-09T03:48:50.632Z,3.53
2018-06-09T03:51:19.196Z,3.47
2018-06-09T03:53:47.775Z,3.57
2018-06-09T03:56:16.322Z,3.60
2018-06-09T03:58:50.041Z,3.60
2018-06-09T04:01:18.288Z,3.27
2018-06-09T04:03:46.832Z,3.10
2018-06-09T04:06:15.328Z,3.47
2018-06-09T04:08:44.070Z,3.33
2018-06-09T04:11:12.587Z,3.67
2018-06-09T04:13:41.062Z,3.30
2018-06-09T04:16:09.639Z,3.57
2018-06-09T04:18:38.130Z,3.87
2018-06-09T04:21:06.806Z,3.10
2018-06-09T04:23:35.420Z,3.40
2018-06-09T04:26:04.037Z,3.60
2018-06-09T04:28:32.499Z,3.47
2018-06-09T04:31:01.069Z,3.57
2018-06-09T04:33:29.575Z,3.30
2018-06-09T04:35:58.196Z,3.50
2018-06-09T04:38:26.861Z,3.50
2018-06-09T04:40:55.098Z,3.17
2018-06-09T04:43:23.683Z,3.07
2018-06-09T04:45:52.305Z,3.10
2018-06-09T04:48:20.537Z,3.20
2018-06-09T04:50:49.621Z,3.80
2018-06-09T04:53:18.251Z,3.33
2018-06-09T04:55:46.494Z,3.30
2018-06-09T04:58:15.049Z,3.50
2018-06-09T05:00:43.571Z,3.23
2018-06-09T05:03:12.155Z,3.13
2018-06-09T05:05:40.816Z,3.10
2018-06-09T05:08:10.130Z,3.07
2018-06-09T05:10:38.681Z,3.23
2018-06-09T05:13:07.282Z,3.10
2018-06-09T05:15:36.712Z,3.10
2018-06-09T05:18:05.621Z,3.20
2018-06-09T05:20:33.864Z,2.80
2018-06-09T05:23:02.431Z,2.60
2018-06-09T05:25:31.021Z,3.30
2018-06-09T05:27:59.541Z,3.33
2018-06-09T05:30:28.458Z,3.17
2018-06-09T05:32:57.041Z,3.00
2018-06-09T05:35:25.724Z,2.87
2018-06-09T05:37:54.363Z,3.10
2018-06-09T05:40:22.945Z,2.87
2018-06-09T05:42:51.516Z,2.93
2018-06-09T05:45:20.049Z,3.00
2018-06-09T05:47:48.645Z,3.10
2018-06-09T05:50:17.831Z,3.07
2018-06-09T05:52:46.347Z,3.00
2018-06-09T05:55:14.896Z,2.90
2018-06-09T05:57:44.120Z,3.57
2018-06-09T06:00:14.337Z,2.33
2018-06-09T06:02:43.148Z,3.07
2018-06-09T06:05:12.760Z,3.30
2018-06-09T06:07:45.649Z,2.83
2018-06-09T06:10:14.985Z,3.27
2018-06-09T06:12:43.711Z,3.10
2018-06-09T06:15:13.042Z,2.80
2018-06-09T06:17:41.712Z,2.77
2018-06-09T06:20:10.483Z,3.00
2018-06-09T06:22:39.646Z,2.87
2018-06-09T06:25:09.303Z,3.10
2018-06-09T06:27:38.561Z,2.47
2018-06-09T06:30:07.200Z,2.70
2018-06-09T06:32:35.870Z,3.43
2018-06-09T06:35:04.540Z,3.10
2018-06-09T06:37:33.205Z,3.17
2018-06-09T06:40:01.917Z,3.17
2018-06-09T06:42:30.451Z,3.03
2018-06-09T06:44:59.976Z,2.70
2018-06-09T06:47:28.572Z,3.23
2018-06-09T06:49:57.328Z,3.77
2018-06-09T06:52:25.957Z,3.00
2018-06-09T06:54:54.592Z,3.13
2018-06-09T06:57:23.173Z,2.97
2018-06-09T06:59:51.773Z,2.90
2018-06-09T07:02:21.077Z,3.63
2018-06-09T07:04:51.654Z,3.50
2018-06-09T07:07:20.379Z,3.40
2018-06-09T07:09:48.999Z,2.90
2018-06-09T07:12:17.584Z,3.13
2018-06-09T07:14:46.180Z,3.10
2018-06-09T07:17:14.854Z,3.40
2018-06-09T07:19:43.448Z,3.00
2018-06-09T07:22:13.005Z,3.70
2018-06-09T07:24:41.685Z,3.33
2018-06-09T07:27:10.354Z,3.27
2018-06-09T07:29:38.595Z,3.40
2018-06-09T07:32:07.220Z,3.60
2018-06-09T07:34:36.308Z,3.30
2018-06-09T07:37:04.691Z,3.13
2018-06-09T07:39:33.316Z,3.00
2018-06-09T07:42:01.911Z,3.50
2018-06-09T07:44:30.630Z,4.13
2018-06-09T07:46:58.880Z,3.80
2018-06-09T07:49:27.577Z,4.13
2018-06-09T07:51:56.175Z,3.50
2018-06-09T07:54:24.826Z,4.27
2018-06-09T07:56:53.365Z,3.57
2018-06-09T07:59:21.942Z,4.10
2018-06-09T08:01:50.668Z,4.00
2018-06-09T08:04:19.610Z,2.80
2018-06-09T08:06:48.021Z,3.00
2018-06-09T08:09:16.700Z,3.40
2018-06-09T08:11:45.470Z,3.50
2018-06-09T08:14:14.104Z,3.00
2018-06-09T08:16:42.737Z,3.10
2018-06-09T08:19:11.649Z,3.10
2018-06-09T08:21:40.500Z,3.30
2018-06-09T08:24:08.739Z,3.43
2018-06-09T08:26:38.017Z,4.00
2018-06-09T08:29:06.743Z,2.90
2018-06-09T08:31:35.408Z,3.43
2018-06-09T08:34:04.613Z,3.70
2018-06-09T08:36:34.051Z,2.97
2018-06-09T08:39:02.748Z,3.53
2018-06-09T08:41:31.469Z,3.77
2018-06-09T08:44:00.084Z,2.90
2018-06-09T08:46:29.445Z,2.97
2018-06-09T08:48:58.019Z,3.00
2018-06-09T08:51:26.712Z,2.90
2018-06-09T08:53:55.428Z,3.00
2018-06-09T08:56:24.046Z,3.60
2018-06-09T08:58:52.573Z,3.03
2018-06-09T09:01:21.136Z,3.20
2018-06-09T09:03:49.813Z,3.20
2018-06-09T09:06:18.629Z,3.00
2018-06-09T09:08:47.347Z,3.20
2018-06-09T09:11:16.012Z,2.90
2018-06-09T09:13:44.755Z,3.50
2018-06-09T09:16:14.108Z,3.00
2018-06-09T09:18:42.928Z,3.20
2018-06-09T09:21:11.244Z,2.80
2018-06-09T09:23:40.019Z,3.37
2018-06-09T09:26:08.666Z,3.10
2018-06-09T09:28:37.003Z,3.10
2018-06-09T09:31:06.393Z,3.33
2018-06-09T09:33:35.147Z,3.20
2018-06-09T09:36:03.587Z,3.37
2018-06-09T09:38:32.157Z,4.10
2018-06-09T09:41:00.781Z,4.33
2018-06-09T09:43:29.347Z,5.00
2018-06-09T09:45:57.921Z,3.23
2018-06-09T09:48:26.568Z,3.07
2018-06-09T09:50:55.189Z,3.30
2018-06-09T09:53:23.804Z,3.70
2018-06-09T09:55:52.138Z,3.60
2018-06-09T09:58:21.360Z,3.27
2018-06-09T10:00:49.957Z,2.90
2018-06-09T10:03:18.298Z,2.80
2018-06-09T10:05:46.894Z,3.40
2018-06-09T10:08:15.562Z,3.40
2018-06-09T10:10:44.336Z,3.20
2018-06-09T10:13:13.061Z,3.00
2018-06-09T10:15:41.676Z,3.20
2018-06-09T10:18:11.652Z,3.27
2018-06-09T10:20:40.240Z,2.90
2018-06-09T10:23:08.556Z,3.10
2018-06-09T10:25:37.200Z,3.03
2018-06-09T10:28:05.795Z,2.80
2018-06-09T10:30:34.107Z,3.00
2018-06-09T10:33:03.477Z,2.80
2018-06-09T10:35:31.773Z,3.13
2018-06-09T10:38:00.377Z,3.10
2018-06-09T10:40:29.040Z,2.80
2018-06-09T10:42:57.630Z,2.97
2018-06-09T10:45:26.192Z,3.20
2018-06-09T10:47:54.857Z,3.23
2018-06-09T10:50:23.530Z,2.63
2018-06-09T10:52:52.170Z,3.00
2018-06-09T10:55:20.835Z,3.73
2018-06-09T10:57:49.111Z,3.43
2018-06-09T11:00:17.324Z,3.33
2018-06-09T11:02:46.009Z,3.00
2018-06-09T11:05:14.631Z,3.10
2018-06-09T11:07:43.184Z,2.70
2018-06-09T11:10:11.867Z,2.80
2018-06-09T11:12:40.507Z,2.90
2018-06-09T11:15:08.784Z,2.60
2018-06-09T11:17:37.866Z,3.13
2018-06-09T11:20:06.725Z,2.83
2018-06-09T11:22:35.659Z,2.80
2018-06-09T11:25:05.609Z,2.60
2018-06-09T11:27:34.335Z,3.50
2018-06-09T11:30:03.083Z,2.73
2018-06-09T11:32:32.325Z,3.03
2018-06-09T11:35:00.588Z,2.90
2018-06-09T11:37:29.215Z,2.70
2018-06-09T11:39:57.785Z,3.40
2018-06-09T11:42:26.496Z,2.70
2018-06-09T11:44:55.865Z,3.20
2018-06-09T11:47:24.222Z,2.90
2018-06-09T11:49:52.868Z,3.53
2018-06-09T11:52:22.002Z,3.07
2018-06-09T11:54:50.621Z,3.00
2018-06-09T11:57:19.183Z,2.90
2018-06-09T11:59:47.427Z,3.50
2018-06-09T12:02:15.992Z,3.43
2018-06-09T12:04:44.580Z,3.30
2018-06-09T12:07:13.266Z,3.37
2018-06-09T12:09:41.864Z,3.20
2018-06-09T12:12:10.435Z,3.50
2018-06-09T12:14:38.957Z,3.70
2018-06-09T12:17:07.241Z,3.37
2018-06-09T12:19:35.803Z,3.30
2018-06-09T12:22:04.443Z,3.10
2018-06-09T12:24:32.982Z,3.43
2018-06-09T12:27:01.229Z,3.60
2018-06-09T12:29:30.501Z,3.30
2018-06-09T12:31:59.173Z,3.40
2018-06-09T12:34:27.720Z,3.40
2018-06-09T12:36:55.947Z,3.67
2018-06-09T12:39:24.527Z,3.87
2018-06-09T12:41:53.080Z,3.83
2018-06-09T12:44:21.691Z,3.33
2018-06-09T12:46:50.281Z,3.60
2018-06-09T12:49:19.688Z,3.43
2018-06-09T12:51:48.236Z,3.50
2018-06-09T12:54:16.910Z,4.23
2018-06-09T12:56:45.529Z,3.90
2018-06-09T12:59:14.181Z,3.80
2018-06-09T13:01:42.724Z,3.93
2018-06-09T13:04:11.375Z,3.70
2018-06-09T13:06:40.840Z,3.67
2018-06-09T13:09:09.476Z,3.70
2018-06-09T13:11:38.058Z,4.13
2018-06-09T13:14:06.736Z,3.70
2018-06-09T13:16:35.389Z,3.60
2018-06-09T13:19:03.934Z,3.70
2018-06-09T13:21:32.212Z,3.67
2018-06-09T13:24:00.885Z,4.07
2018-06-09T13:26:29.424Z,4.13
2018-06-09T13:28:58.005Z,4.23
2018-06-09T13:31:26.707Z,3.80
2018-06-09T13:33:55.416Z,4.20
2018-06-09T13:36:23.989Z,3.87
2018-06-09T13:38:52.659Z,4.03
2018-06-09T13:41:22.062Z,3.87
2018-06-09T13:43:50.594Z,4.40
2018-06-09T13:46:19.527Z,4.10
2018-06-09T13:48:48.422Z,3.90
2018-06-09T13:51:16.964Z,4.23
2018-06-09T13:53:45.280Z,3.80
2018-06-09T13:56:13.751Z,3.87
2018-06-09T13:58:42.959Z,4.00
2018-06-09T14:01:11.521Z,4.63
2018-06-09T14:03:40.095Z,4.30
2018-06-09T14:06:08.685Z,4.20
2018-06-09T14:08:37.285Z,4.17
2018-06-09T14:11:06.472Z,4.57
2018-06-09T14:13:35.083Z,4.03
2018-06-09T14:16:03.610Z,4.27
2018-06-09T14:18:31.912Z,3.93
2018-06-09T14:21:00.554Z,3.90
2018-06-09T14:23:29.171Z,4.63
2018-06-09T14:25:57.694Z,3.83
2018-06-09T14:28:26.244Z,3.80
2018-06-09T14:30:54.830Z,3.60
2018-06-09T14:33:23.387Z,3.67
2018-06-09T14:35:52.016Z,3.80
2018-06-09T14:38:20.615Z,3.97
2018-06-09T14:40:49.249Z,3.97
2018-06-09T14:43:17.862Z,3.87
2018-06-09T14:45:46.455Z,4.00
2018-06-09T14:48:15.011Z,4.30
2018-06-09T14:50:44.522Z,4.27
2018-06-09T14:53:13.978Z,3.87
2018-06-09T14:55:42.187Z,4.37
2018-06-09T14:58:10.918Z,4.07
2018-06-09T15:00:39.600Z,3.90
2018-06-09T15:03:08.174Z,4.60
2018-06-09T15:05:36.822Z,4.63
2018-06-09T15:08:06.289Z,4.67
2018-06-09T15:10:34.911Z,3.80
2018-06-09T15:13:04.458Z,4.10
2018-06-09T15:15:33.141Z,4.13
2018-06-09T15:18:01.776Z,3.90
2018-06-09T15:20:30.429Z,4.47
2018-06-09T15:22:59.108Z,4.63
2018-06-09T15:25:27.771Z,4.47
2018-06-09T15:27:56.394Z,4.17
2018-06-09T15:30:24.772Z,4.50
2018-06-09T15:32:53.096Z,3.97
2018-06-09T15:35:21.750Z,4.20
2018-06-09T15:37:50.038Z,3.90
2018-06-09T15:40:18.651Z,4.47
2018-06-09T15:42:47.153Z,4.20
2018-06-09T15:45:15.808Z,4.63
2018-06-09T15:47:44.424Z,5.83
2018-06-09T15:50:13.777Z,6.33
2018-06-09T15:52:42.476Z,4.30
2018-06-09T15:55:11.142Z,4.70
2018-06-09T15:57:40.878Z,4.90
2018-06-09T16:00:09.760Z,4.53
2018-06-09T16:02:38.411Z,5.20
2018-06-09T16:05:07.098Z,5.03
2018-06-09T16:07:35.760Z,4.50
2018-06-09T16:10:04.802Z,4.27
2018-06-09T16:12:33.436Z,4.70
2018-06-09T16:15:01.676Z,5.23
2018-06-09T16:17:30.262Z,4.80
2018-06-09T16:19:58.809Z,4.60
2018-06-09T16:22:27.559Z,5.30
2018-06-09T16:24:55.851Z,4.70
2018-06-09T16:27:24.630Z,4.50
2018-06-09T16:29:52.927Z,5.40
2018-06-09T16:32:21.519Z,5.27
2018-06-09T16:34:50.140Z,5.33
2018-06-09T16:37:18.781Z,4.83
2018-06-09T16:39:47.402Z,4.67
2018-06-09T16:42:15.948Z,4.60
2018-06-09T16:44:44.623Z,4.17
2018-06-09T16:47:13.309Z,4.30
2018-06-09T16:49:41.858Z,4.93
2018-06-09T16:52:10.457Z,4.80
2018-06-09T16:54:38.703Z,3.60
2018-06-09T16:57:07.289Z,4.23
2018-06-09T16:59:37.036Z,4.00
2018-06-09T17:02:05.805Z,4.07
2018-06-09T17:04:34.384Z,4.60
2018-06-09T17:07:02.952Z,4.53
2018-06-09T17:09:31.575Z,4.73
2018-06-09T17:12:00.768Z,4.60
2018-06-09T17:14:29.392Z,4.97
2018-06-09T17:16:58.646Z,3.53
2018-06-09T17:19:27.507Z,3.60
2018-06-09T17:21:56.072Z,3.93
2018-06-09T17:24:24.678Z,4.70
2018-06-09T17:26:52.940Z,3.60
2018-06-09T17:29:21.459Z,4.20
2018-06-09T17:31:50.098Z,4.20
2018-06-09T17:34:18.720Z,3.77
2018-06-09T17:36:47.272Z,4.63
2018-06-09T17:39:15.839Z,4.80
2018-06-09T17:41:45.176Z,4.70
2018-06-09T17:44:13.414Z,3.90
2018-06-09T17:46:42.124Z,4.07
2018-06-09T17:49:10.635Z,4.77
2018-06-09T17:51:38.917Z,4.43
2018-06-09T17:54:07.685Z,4.20
2018-06-09T17:56:36.157Z,4.20
2018-06-09T17:59:04.477Z,4.00
2018-06-09T18:01:33.072Z,4.07
2018-06-09T18:04:02.397Z,4.20
2018-06-09T18:06:31.161Z,4.47
2018-06-09T18:08:59.952Z,5.33
2018-06-09T18:11:29.365Z,4.80
2018-06-09T18:13:58.248Z,4.83
2018-06-09T18:16:27.075Z,9.27
2018-06-09T18:18:55.377Z,5.30
2018-06-09T18:21:25.092Z,5.17
2018-06-09T18:23:54.059Z,5.80
2018-06-09T18:26:22.462Z,6.33
2018-06-09T18:28:52.392Z,6.07
2018-06-09T18:31:21.402Z,5.80
2018-06-09T18:33:50.315Z,6.07
2018-06-09T18:36:19.774Z,6.43
2018-06-09T18:38:48.383Z,6.13
2018-06-09T18:41:16.882Z,6.93
2018-06-09T18:43:45.680Z,7.13
2018-06-09T18:46:14.105Z,7.40
2018-06-09T18:48:42.727Z,6.43
2018-06-09T18:51:11.406Z,6.53
2018-06-09T18:53:39.993Z,6.93
2018-06-09T18:56:08.636Z,6.63
2018-06-09T18:58:37.264Z,7.17
2018-06-09T19:01:06.097Z,6.87
2018-06-09T19:03:34.967Z,6.73
2018-06-09T19:06:03.277Z,7.47
2018-06-09T19:08:31.916Z,7.47
2018-06-09T19:11:00.219Z,6.90
2018-06-09T19:13:28.825Z,7.47
2018-06-09T19:15:57.517Z,6.90
2018-06-09T19:18:26.135Z,6.93
2018-06-09T19:20:55.463Z,7.20
2018-06-09T19:23:24.181Z,7.03
2018-06-09T19:25:52.972Z,11.27
2018-06-09T19:28:21.633Z,7.30
2018-06-09T19:30:50.467Z,7.23
2018-06-09T19:33:19.239Z,7.63
2018-06-09T19:35:47.919Z,7.23
2018-06-09T19:38:16.582Z,7.87
2018-06-09T19:40:45.243Z,7.93
2018-06-09T19:43:13.529Z,8.17
2018-06-09T19:45:42.172Z,8.10
2018-06-09T19:48:14.186Z,7.80
2018-06-09T19:50:42.788Z,7.60
2018-06-09T19:53:11.692Z,7.70
2018-06-09T19:55:40.333Z,7.77
2018-06-09T19:58:09.127Z,8.23
2018-06-09T20:00:37.767Z,8.80
2018-06-09T20:03:06.475Z,7.57
2018-06-09T20:05:34.737Z,8.07
2018-06-09T20:08:03.817Z,7.57
2018-06-09T20:10:32.447Z,8.10
2018-06-09T20:13:01.181Z,7.77
2018-06-09T20:15:29.759Z,7.57
2018-06-09T20:17:58.471Z,8.07
2018-06-09T20:20:27.171Z,7.30
2018-06-09T20:22:55.600Z,8.53
2018-06-09T20:25:24.357Z,9.20
2018-06-09T20:27:53.036Z,8.43
2018-06-09T20:30:22.776Z,9.23
2018-06-09T20:32:51.483Z,8.67
2018-06-09T20:35:20.197Z,9.60
2018-06-09T20:37:49.153Z,9.00
2018-06-09T20:40:17.873Z,9.10
2018-06-09T20:42:46.100Z,8.37
2018-06-09T20:45:14.805Z,8.83
2018-06-09T20:47:43.393Z,10.00
2018-06-09T20:50:12.060Z,9.60
2018-06-09T20:52:40.745Z,9.40
2018-06-09T20:55:09.332Z,9.17
2018-06-09T20:57:38.017Z,8.93
2018-06-09T21:00:06.712Z,8.57
2018-06-09T21:02:36.180Z,9.10
2018-06-09T21:05:05.600Z,9.73
2018-06-09T21:07:34.983Z,9.47
2018-06-09T21:10:05.471Z,11.13
2018-06-09T21:12:33.798Z,9.07
2018-06-09T21:15:02.479Z,8.87
2018-06-09T21:17:31.256Z,9.77
2018-06-09T21:19:59.943Z,10.43
2018-06-09T21:22:28.518Z,9.70
2018-06-09T21:24:57.335Z,10.27
2018-06-09T21:27:29.144Z,18.77
2018-06-09T21:29:57.604Z,9.63
2018-06-09T21:32:28.951Z,10.67
2018-06-09T21:35:14.297Z,10.10
2018-06-09T21:37:43.014Z,10.83
2018-06-09T21:40:24.433Z,10.83
2018-06-09T21:42:58.335Z,10.50
2018-06-09T21:45:33.141Z,12.80
2018-06-09T21:48:01.860Z,10.53
2018-06-09T21:50:31.077Z,11.17
2018-06-09T21:52:59.323Z,10.30
2018-06-09T21:55:28.150Z,12.07
2018-06-09T21:57:56.793Z,11.80
2018-06-09T22:00:26.977Z,11.07
2018-06-09T22:02:56.361Z,11.03
2018-06-09T22:05:25.017Z,11.67
2018-06-09T22:07:54.399Z,12.47
2018-06-09T22:10:22.986Z,13.37
2018-06-09T22:12:51.659Z,13.63
2018-06-09T22:15:20.596Z,13.40
2018-06-09T22:17:49.284Z,13.27
2018-06-09T22:20:17.936Z,12.40
2018-06-09T22:22:46.444Z,12.03
2018-06-09T22:25:19.826Z,12.83
2018-06-09T22:27:48.489Z,12.63
2018-06-09T22:30:17.704Z,13.77
2018-06-09T22:32:46.250Z,14.63
2018-06-09T22:35:15.253Z,14.30
2018-06-09T22:37:43.969Z,13.90
2018-06-09T22:40:12.651Z,13.10
2018-06-09T22:42:41.322Z,14.03
2018-06-09T22:45:09.996Z,13.13
2018-06-09T22:47:38.785Z,13.17
2018-06-09T22:50:07.442Z,13.17
2018-06-09T22:52:35.763Z,12.57
2018-06-09T22:55:04.490Z,13.13
2018-06-09T22:57:33.107Z,13.33
2018-06-09T23:00:02.194Z,13.20
2018-06-09T23:02:30.470Z,13.60
2018-06-09T23:04:58.841Z,12.20
2018-06-09T23:07:27.078Z,12.50
2018-06-09T23:09:55.624Z,12.53
2018-06-09T23:12:24.329Z,13.30
2018-06-09T23:14:53.071Z,14.87
2018-06-09T23:17:21.816Z,13.80
2018-06-09T23:19:50.445Z,14.13
2018-06-09T23:22:18.741Z,13.07
2018-06-09T23:24:47.397Z,12.80
2018-06-09T23:27:16.020Z,13.03
2018-06-09T23:29:44.640Z,12.97
2018-06-09T23:32:13.351Z,11.90
2018-06-09T23:34:42.018Z,12.57
2018-06-09T23:37:10.717Z,12.43
2018-06-09T23:39:39.303Z,12.33
2018-06-09T23:42:08.005Z,12.57
2018-06-09T23:44:36.575Z,13.80
2018-06-09T23:47:05.144Z,11.83
2018-06-09T23:49:33.737Z,13.77
2018-06-09T23:52:02.340Z,13.30
2018-06-09T23:54:30.935Z,12.03
2018-06-09T23:57:00.226Z,11.97
2018-06-09T23:59:29.464Z,11.90
